Sunburg, MN (56289)

8:45 PM CST on February 27, 2017 (GMT -0600)
Lake Florida | | Change Station

Elev 1129 ft 45.25 °N, 95.07 °W | Updated 3 seconds ago

Overcast
Overcast
36.0 °F
Feels Like 33 °F
N
3.6
Wind Variable Wind from SE
Gusts 3.6 mph

Today
High -- | Low -- °F
--% Chance of Precip.
Yesterday
High -- | Low -- °F
Precip. -- in
Pressure 29.82 in
Visibility 10.0 miles
Clouds Scattered Clouds 10000 ft
Windchill 33 °F
Dew Point 25 °F
Humidity 64%
Rainfall 0.00 in
Snow Depth Not available.
7:02 AM 6:05 PM
Waxing Crescent, 3% visible
METAR KBDH 280235Z AUTO 15010KT 10SM SCT100 02/M01 A2982 RMK AO2
Pressure 29.82 in
Visibility 10.0 miles
Clouds Scattered Clouds 10000 ft
Windchill 33 °F
Dew Point 25 °F
Humidity 64%
Rainfall 0.00 in
Snow Depth Not available.
7:02 AM 6:05 PM
Waxing Crescent, 3% visible
METAR KBDH 280235Z AUTO 15010KT 10SM SCT100 02/M01 A2982 RMK AO2

Get Your Daily Forecast Email!

Thanks for signing up!

Be on the lookout for a verification email in your inbox.

You'll start receiving the daily forecast at 8 AM.

×

10-Day Weather Forecast

Almanac

Astronomy

Feb. 27, 2017 Rise Set
Actual Time
Civil Twilight
Nautical Twilight
Astronomical Twilight
Moon
Length of Visible Light
Length of Day
Tomorrow will be .
, % of the Moon is Illuminated

Today's Extremes

State Highs State Lows

Community

WunderPhotos

Upload Photos

1,962,540 photos uploaded!

WunderBlog® & News

Nearby

Air Quality

  Air Quality AQ Index Pollutant
Not available.

Snow Depth

Station Depth Elevation

Earthquake Activity

City Distance Mag. Time & Date
Minimum magnitude displayed is 2.5.

Coastal Water Temperatures

Place Temperature

Stations

Nearby Weather Stations

Station Location Temp. Windchill Dew Point Humidity Wind Precip. Elev Updated Type
                   

Watches & Warnings

There are currently no watches in effect.